Fort Pike — WAA9418 — position and weather

sailwx.info

Track history (hours):
 
Tides and Currents Weather Stations Pressure Air Temp Water Temp Dewpoint Dewpoint Depression Visibility Wind Speed Wind Dir Waves Ship Positions

Fort Pike

Owner: Salisbury Towing Corporation, Chesapeak, VA. More information available from US FCC via Universal Licensing System and Coast Guard Vessel Documentation Center.

Last reported at 2016-Feb-12 05:06 UTC. Time now 2016-Feb-12 07:53 UTC.
Position N 36°43' W 076°12'.

Length 18 m; draft 10.5 m.

Type: Tug. MMSI: 366948310.

Date/timePositionNaut miles runAvg speedWind from/ knotsBaromVisibWave heightAir tempDewpointWater temp
2016-Feb-12 05:06N 36°43' W 076°12'2 3.2
2016-Feb-12 04:28N 36°43' W 076°15'4 4.3
2016-Feb-12 03:32N 36°47' W 076°18'4 3.9
2016-Feb-12 02:33N 36°50' W 076°17'1 0.6
2016-Feb-12 01:26N 36°50' W 076°16'2 2.6
2016-Feb-12 00:34N 36°49' W 076°17'5 4.9
2016-Feb-11 23:33N 36°44' W 076°16'1 0.0
2016-Feb-10 01:19N 36°43' W 076°15'3 3.7
2016-Feb-10 00:33N 36°45' W 076°18'5 5.4
2016-Feb-09 23:33N 36°50' W 076°17'1 1.0
2016-Feb-09 22:33N 36°50' W 076°16'0 0.1
2016-Feb-09 21:32N 36°50' W 076°16'1 1.1
2016-Feb-09 20:33N 36°50' W 076°17'0 0.2
2016-Feb-09 19:33N 36°51' W 076°17'1 1.0
2016-Feb-09 18:17N 36°50' W 076°16'1 1.8
2016-Feb-09 17:31N 36°50' W 076°17'0 0.0
2016-Feb-09 16:31N 36°50' W 076°17'0 0.0
2016-Feb-09 15:28N 36°50' W 076°17'0 0.0
2016-Feb-09 14:31N 36°50' W 076°17'0 0.0
2016-Feb-09 13:31N 36°50' W 076°17'0 0.0
2016-Feb-09 12:31N 36°50' W 076°17'0 0.0
2016-Feb-09 11:28N 36°50' W 076°17'0 0.0
2016-Feb-09 10:31N 36°50' W 076°17'0 0.0
2016-Feb-09 09:31N 36°50' W 076°17'0 0.0
2016-Feb-09 08:31N 36°50' W 076°17'0 0.0
2016-Feb-09 07:31N 36°50' W 076°17'0 0.0
2016-Feb-09 06:28N 36°50' W 076°17'0 0.0
2016-Feb-09 05:31N 36°50' W 076°17'0 0.0
2016-Feb-09 04:31N 36°50' W 076°17'0 0.0
2016-Feb-09 03:31N 36°50' W 076°17'0 0.0
2016-Feb-09 02:31N 36°50' W 076°17'0 0.0
2016-Feb-09 01:31N 36°50' W 076°17'0 0.0
2016-Feb-09 00:31N 36°50' W 076°17'0 0.0
2016-Feb-08 23:31N 36°50' W 076°17'0 0.0
2016-Feb-08 22:31N 36°50' W 076°17'0 0.0
2016-Feb-08 21:31N 36°50' W 076°17'0 0.0
2016-Feb-08 20:31N 36°50' W 076°17'0 0.0
2016-Feb-08 19:31N 36°50' W 076°17'0 0.0
2016-Feb-08 18:31N 36°50' W 076°17'0 0.0
2016-Feb-08 17:19N 36°50' W 076°17'0 0.6
2016-Feb-08 16:33N 36°51' W 076°18'2 0.6
2016-Feb-08 12:33N 36°52' W 076°20'3 3.0
2016-Feb-08 11:33N 36°50' W 076°17'0 0.4
2016-Feb-08 10:32N 36°50' W 076°17'0 0.0
2016-Feb-08 09:32N 36°50' W 076°17'0 0.0
2016-Feb-08 08:32N 36°50' W 076°17'0 0.0
2016-Feb-08 07:32N 36°50' W 076°17'0 0.0
2016-Feb-08 06:32N 36°50' W 076°17'0 0.0
2016-Feb-08 05:32N 36°50' W 076°17'0 0.0
2016-Feb-08 04:32N 36°50' W 076°17'0 0.0
2016-Feb-08 03:32N 36°50' W 076°17'0 0.0
2016-Feb-08 02:32N 36°50' W 076°17'0 0.0
2016-Feb-08 01:32N 36°50' W 076°17'0 0.0
2016-Feb-08 00:32N 36°50' W 076°17'0 0.0
2016-Feb-07 23:32N 36°50' W 076°17'0 0.0
2016-Feb-07 22:29N 36°50' W 076°17'0 0.0
2016-Feb-07 21:32N 36°50' W 076°17'0 0.0
2016-Feb-07 20:32N 36°50' W 076°17'0 0.0
2016-Feb-07 19:32N 36°50' W 076°17'0 0.0
2016-Feb-07 18:29N 36°50' W 076°17'0 0.0
2016-Feb-07 17:29N 36°50' W 076°17'0 0.0
2016-Feb-07 16:32N 36°50' W 076°17'0 0.0
2016-Feb-07 15:32N 36°50' W 076°17'0 0.0
2016-Feb-07 14:32N 36°50' W 076°17'0 0.0
2016-Feb-07 13:32N 36°50' W 076°17'0 0.0
2016-Feb-07 11:32N 36°50' W 076°17'0 0.0
2016-Feb-07 10:32N 36°50' W 076°17'0 0.0
2016-Feb-07 09:32N 36°50' W 076°17'0 0.0
2016-Feb-07 08:32N 36°50' W 076°17'0 0.0
2016-Feb-07 07:32N 36°50' W 076°17'0 0.0
2016-Feb-07 06:32N 36°50' W 076°17'0 0.0
2016-Feb-07 05:32N 36°50' W 076°17'0 0.0
2016-Feb-07 04:32N 36°50' W 076°17'0 0.0
2016-Feb-07 03:32N 36°50' W 076°17'0 0.4
2016-Feb-07 02:33N 36°50' W 076°18'6 6.2
2016-Feb-07 01:33N 36°44' W 076°17'2 0.1
2016-Feb-06 03:23N 36°43' W 076°15'4 4.2
2016-Feb-06 02:33N 36°46' W 076°18'4 4.4
2016-Feb-06 01:33N 36°50' W 076°17'2 1.6
2016-Feb-06 00:33N 36°50' W 076°15'2 2.2
2016-Feb-05 23:32N 36°50' W 076°17'0 0.0
2016-Feb-05 22:32N 36°50' W 076°17'0 0.0
2016-Feb-05 21:32N 36°50' W 076°17'0 0.0
2016-Feb-05 20:32N 36°50' W 076°17'0 0.0
2016-Feb-05 19:29N 36°50' W 076°17'0 0.0
2016-Feb-05 18:32N 36°50' W 076°17'2 2.2
2016-Feb-05 17:33N 36°50' W 076°15'0 0.0
2016-Feb-05 16:33N 36°50' W 076°15'0 0.0
2016-Feb-05 15:33N 36°50' W 076°15'0 0.0
2016-Feb-05 14:33N 36°50' W 076°15'2 2.1
2016-Feb-05 13:32N 36°50' W 076°17'0 0.0
2016-Feb-05 12:23N 36°50' W 076°17'0 0.0
2016-Feb-05 11:32N 36°50' W 076°17'0 0.0
2016-Feb-05 10:32N 36°50' W 076°17'0 0.0
2016-Feb-05 09:32N 36°50' W 076°17'0 0.0
2016-Feb-05 08:32N 36°50' W 076°17'0 0.0
2016-Feb-05 07:32N 36°50' W 076°17'0 0.0
2016-Feb-05 06:32N 36°50' W 076°17'0 0.0
2016-Feb-05 05:29N 36°50' W 076°17'0 0.0
2016-Feb-05 04:23N 36°50' W 076°17'0 0.0
2016-Feb-05 03:23N 36°50' W 076°17'0 0.0
2016-Feb-05 02:32N 36°50' W 076°17'0 0.0
2016-Feb-05 01:23N 36°50' W 076°17'0 0.0
2016-Feb-05 00:23N 36°50' W 076°17'0 0.0
2016-Feb-04 23:32N 36°50' W 076°17'0 0.0
2016-Feb-04 22:32N 36°50' W 076°17'0 0.0
2016-Feb-04 21:32N 36°50' W 076°17'0 0.0
2016-Feb-04 20:32N 36°50' W 076°17'0 0.0
2016-Feb-04 19:32N 36°50' W 076°17'0 0.0
2016-Feb-04 18:29N 36°50' W 076°17'0 0.0
2016-Feb-04 17:32N 36°50' W 076°17'0 0.0
2016-Feb-04 16:32N 36°50' W 076°17'0 0.0
2016-Feb-04 15:32N 36°50' W 076°17'0 0.0
2016-Feb-04 14:32N 36°50' W 076°17'0 0.0
2016-Feb-04 13:32N 36°50' W 076°17'0 0.0
2016-Feb-04 12:32N 36°50' W 076°17'0 0.0
2016-Feb-04 11:32N 36°50' W 076°17'0 0.0
2016-Feb-04 10:32N 36°50' W 076°17'0 0.0
2016-Feb-04 09:32N 36°50' W 076°17'0 0.0
2016-Feb-04 08:31N 36°50' W 076°17'0 0.0
2016-Feb-04 07:32N 36°50' W 076°17'2 0.2
2016-Feb-03 21:33N 36°52' W 076°19'2 2.1
2016-Feb-03 20:33N 36°50' W 076°17'0 0.0
2016-Feb-03 19:33N 36°50' W 076°17'0 0.0
2016-Feb-03 18:33N 36°50' W 076°17'0 0.0
2016-Feb-03 17:33N 36°50' W 076°17'0 0.0
2016-Feb-03 16:33N 36°50' W 076°17'0 0.0
2016-Feb-03 15:33N 36°50' W 076°17'0 0.0
2016-Feb-03 14:33N 36°50' W 076°17'0 0.0
2016-Feb-03 13:33N 36°50' W 076°17'0 0.0
2016-Feb-03 12:33N 36°50' W 076°17'0 0.0
2016-Feb-03 11:33N 36°50' W 076°17'2 2.2
2016-Feb-03 10:33N 36°51' W 076°20'3 3.5
2016-Feb-03 09:33N 36°50' W 076°16'2 1.6
2016-Feb-03 08:33N 36°50' W 076°18'4 4.3
2016-Feb-03 07:33N 36°46' W 076°18'3 3.2
2016-Feb-03 06:30N 36°43' W 076°15'  
Track history (hours):
 
Tides and Currents Weather Stations Pressure Air Temp Water Temp Dewpoint Dewpoint Depression Visibility Wind Speed Wind Dir Waves Ship Positions

Fort Pike

Owner: Salisbury Towing Corporation, Chesapeak, VA. More information available from US FCC via Universal Licensing System and Coast Guard Vessel Documentation Center.

Last reported at 2016-Feb-12 05:06 UTC. Time now 2016-Feb-12 07:53 UTC.
Position N 36°43' W 076°12'.

Length 18 m; draft 10.5 m.

Type: Tug. MMSI: 366948310.

Date/timePositionNaut miles runAvg speedWind from/ knotsBaromVisibWave heightAir tempDewpointWater temp
2016-Feb-12 05:06N 36°43' W 076°12'2 3.2
2016-Feb-12 04:28N 36°43' W 076°15'4 4.3
2016-Feb-12 03:32N 36°47' W 076°18'4 3.9
2016-Feb-12 02:33N 36°50' W 076°17'1 0.6
2016-Feb-12 01:26N 36°50' W 076°16'2 2.6
2016-Feb-12 00:34N 36°49' W 076°17'5 4.9
2016-Feb-11 23:33N 36°44' W 076°16'1 0.0
2016-Feb-10 01:19N 36°43' W 076°15'3 3.7
2016-Feb-10 00:33N 36°45' W 076°18'5 5.4
2016-Feb-09 23:33N 36°50' W 076°17'1 1.0
2016-Feb-09 22:33N 36°50' W 076°16'0 0.1
2016-Feb-09 21:32N 36°50' W 076°16'1 1.1
2016-Feb-09 20:33N 36°50' W 076°17'0 0.2
2016-Feb-09 19:33N 36°51' W 076°17'1 1.0
2016-Feb-09 18:17N 36°50' W 076°16'1 1.8
2016-Feb-09 17:31N 36°50' W 076°17'0 0.0
2016-Feb-09 16:31N 36°50' W 076°17'0 0.0
2016-Feb-09 15:28N 36°50' W 076°17'0 0.0
2016-Feb-09 14:31N 36°50' W 076°17'0 0.0
2016-Feb-09 13:31N 36°50' W 076°17'0 0.0
2016-Feb-09 12:31N 36°50' W 076°17'0 0.0
2016-Feb-09 11:28N 36°50' W 076°17'0 0.0
2016-Feb-09 10:31N 36°50' W 076°17'0 0.0
2016-Feb-09 09:31N 36°50' W 076°17'0 0.0
2016-Feb-09 08:31N 36°50' W 076°17'0 0.0
2016-Feb-09 07:31N 36°50' W 076°17'0 0.0
2016-Feb-09 06:28N 36°50' W 076°17'0 0.0
2016-Feb-09 05:31N 36°50' W 076°17'0 0.0
2016-Feb-09 04:31N 36°50' W 076°17'0 0.0
2016-Feb-09 03:31N 36°50' W 076°17'0 0.0
2016-Feb-09 02:31N 36°50' W 076°17'0 0.0
2016-Feb-09 01:31N 36°50' W 076°17'0 0.0
2016-Feb-09 00:31N 36°50' W 076°17'0 0.0
2016-Feb-08 23:31N 36°50' W 076°17'0 0.0
2016-Feb-08 22:31N 36°50' W 076°17'0 0.0
2016-Feb-08 21:31N 36°50' W 076°17'0 0.0
2016-Feb-08 20:31N 36°50' W 076°17'0 0.0
2016-Feb-08 19:31N 36°50' W 076°17'0 0.0
2016-Feb-08 18:31N 36°50' W 076°17'0 0.0
2016-Feb-08 17:19N 36°50' W 076°17'0 0.6
2016-Feb-08 16:33N 36°51' W 076°18'2 0.6
2016-Feb-08 12:33N 36°52' W 076°20'3 3.0
2016-Feb-08 11:33N 36°50' W 076°17'0 0.4
2016-Feb-08 10:32N 36°50' W 076°17'0 0.0
2016-Feb-08 09:32N 36°50' W 076°17'0 0.0
2016-Feb-08 08:32N 36°50' W 076°17'0 0.0
2016-Feb-08 07:32N 36°50' W 076°17'0 0.0
2016-Feb-08 06:32N 36°50' W 076°17'0 0.0
2016-Feb-08 05:32N 36°50' W 076°17'0 0.0
2016-Feb-08 04:32N 36°50' W 076°17'0 0.0
2016-Feb-08 03:32N 36°50' W 076°17'0 0.0
2016-Feb-08 02:32N 36°50' W 076°17'0 0.0
2016-Feb-08 01:32N 36°50' W 076°17'0 0.0
2016-Feb-08 00:32N 36°50' W 076°17'0 0.0
2016-Feb-07 23:32N 36°50' W 076°17'0 0.0
2016-Feb-07 22:29N 36°50' W 076°17'0 0.0
2016-Feb-07 21:32N 36°50' W 076°17'0 0.0
2016-Feb-07 20:32N 36°50' W 076°17'0 0.0
2016-Feb-07 19:32N 36°50' W 076°17'0 0.0
2016-Feb-07 18:29N 36°50' W 076°17'0 0.0
2016-Feb-07 17:29N 36°50' W 076°17'0 0.0
2016-Feb-07 16:32N 36°50' W 076°17'0 0.0
2016-Feb-07 15:32N 36°50' W 076°17'0 0.0
2016-Feb-07 14:32N 36°50' W 076°17'0 0.0
2016-Feb-07 13:32N 36°50' W 076°17'0 0.0
2016-Feb-07 11:32N 36°50' W 076°17'0 0.0
2016-Feb-07 10:32N 36°50' W 076°17'0 0.0
2016-Feb-07 09:32N 36°50' W 076°17'0 0.0
2016-Feb-07 08:32N 36°50' W 076°17'0 0.0
2016-Feb-07 07:32N 36°50' W 076°17'0 0.0
2016-Feb-07 06:32N 36°50' W 076°17'0 0.0
2016-Feb-07 05:32N 36°50' W 076°17'0 0.0
2016-Feb-07 04:32N 36°50' W 076°17'0 0.0
2016-Feb-07 03:32N 36°50' W 076°17'0 0.4
2016-Feb-07 02:33N 36°50' W 076°18'6 6.2
2016-Feb-07 01:33N 36°44' W 076°17'2 0.1
2016-Feb-06 03:23N 36°43' W 076°15'4 4.2
2016-Feb-06 02:33N 36°46' W 076°18'4 4.4
2016-Feb-06 01:33N 36°50' W 076°17'2 1.6
2016-Feb-06 00:33N 36°50' W 076°15'2 2.2
2016-Feb-05 23:32N 36°50' W 076°17'0 0.0
2016-Feb-05 22:32N 36°50' W 076°17'0 0.0
2016-Feb-05 21:32N 36°50' W 076°17'0 0.0
2016-Feb-05 20:32N 36°50' W 076°17'0 0.0
2016-Feb-05 19:29N 36°50' W 076°17'0 0.0
2016-Feb-05 18:32N 36°50' W 076°17'2 2.2
2016-Feb-05 17:33N 36°50' W 076°15'0 0.0
2016-Feb-05 16:33N 36°50' W 076°15'0 0.0
2016-Feb-05 15:33N 36°50' W 076°15'0 0.0
2016-Feb-05 14:33N 36°50' W 076°15'2 2.1
2016-Feb-05 13:32N 36°50' W 076°17'0 0.0
2016-Feb-05 12:23N 36°50' W 076°17'0 0.0
2016-Feb-05 11:32N 36°50' W 076°17'0 0.0
2016-Feb-05 10:32N 36°50' W 076°17'0 0.0
2016-Feb-05 09:32N 36°50' W 076°17'0 0.0
2016-Feb-05 08:32N 36°50' W 076°17'0 0.0
2016-Feb-05 07:32N 36°50' W 076°17'0 0.0
2016-Feb-05 06:32N 36°50' W 076°17'0 0.0
2016-Feb-05 05:29N 36°50' W 076°17'0 0.0
2016-Feb-05 04:23N 36°50' W 076°17'0 0.0
2016-Feb-05 03:23N 36°50' W 076°17'0 0.0
2016-Feb-05 02:32N 36°50' W 076°17'0 0.0
2016-Feb-05 01:23N 36°50' W 076°17'0 0.0
2016-Feb-05 00:23N 36°50' W 076°17'0 0.0
2016-Feb-04 23:32N 36°50' W 076°17'0 0.0
2016-Feb-04 22:32N 36°50' W 076°17'0 0.0
2016-Feb-04 21:32N 36°50' W 076°17'0 0.0
2016-Feb-04 20:32N 36°50' W 076°17'0 0.0
2016-Feb-04 19:32N 36°50' W 076°17'0 0.0
2016-Feb-04 18:29N 36°50' W 076°17'0 0.0
2016-Feb-04 17:32N 36°50' W 076°17'0 0.0
2016-Feb-04 16:32N 36°50' W 076°17'0 0.0
2016-Feb-04 15:32N 36°50' W 076°17'0 0.0
2016-Feb-04 14:32N 36°50' W 076°17'0 0.0
2016-Feb-04 13:32N 36°50' W 076°17'0 0.0
2016-Feb-04 12:32N 36°50' W 076°17'0 0.0
2016-Feb-04 11:32N 36°50' W 076°17'0 0.0
2016-Feb-04 10:32N 36°50' W 076°17'0 0.0
2016-Feb-04 09:32N 36°50' W 076°17'0 0.0
2016-Feb-04 08:31N 36°50' W 076°17'0 0.0
2016-Feb-04 07:32N 36°50' W 076°17'2 0.2
2016-Feb-03 21:33N 36°52' W 076°19'2 2.1
2016-Feb-03 20:33N 36°50' W 076°17'0 0.0
2016-Feb-03 19:33N 36°50' W 076°17'0 0.0
2016-Feb-03 18:33N 36°50' W 076°17'0 0.0
2016-Feb-03 17:33N 36°50' W 076°17'0 0.0
2016-Feb-03 16:33N 36°50' W 076°17'0 0.0
2016-Feb-03 15:33N 36°50' W 076°17'0 0.0
2016-Feb-03 14:33N 36°50' W 076°17'0 0.0
2016-Feb-03 13:33N 36°50' W 076°17'0 0.0
2016-Feb-03 12:33N 36°50' W 076°17'0 0.0
2016-Feb-03 11:33N 36°50' W 076°17'2 2.2
2016-Feb-03 10:33N 36°51' W 076°20'3 3.5
2016-Feb-03 09:33N 36°50' W 076°16'2 1.6
2016-Feb-03 08:33N 36°50' W 076°18'4 4.3
2016-Feb-03 07:33N 36°46' W 076°18'3 3.2
2016-Feb-03 06:30N 36°43' W 076°15'  

Dump ship's entire track history